Time;durP1;ratioP1;P1;durP2;ratioP2;P2;SDS_P1;SDS_P2;PMS_P1;PMS_P2;Temp;Humidity;BMP_temperature;BMP_pressure;BME280_temperature;BME280_humidity;BME280_pressure;Samples;Min_cycle;Max_cycle;Signal;HPM_P1;HPM_P2
2022/08/28 00:01:11;;;;;;;12.13;3.75;;;;;;;22.58;46.01;102025.03;5091964;28;20031;-67
2022/08/28 00:03:37;;;;;;;6.50;3.25;;;;;;;22.51;46.94;102023.66;5091836;28;20063;-68
2022/08/28 00:06:02;;;;;;;12.48;3.25;;;;;;;22.45;47.20;102028.31;5091509;28;20480;-64
2022/08/28 00:08:29;;;;;;;12.43;2.85;;;;;;;22.61;47.07;102021.78;5091647;28;20032;-65
2022/08/28 00:10:55;;;;;;;16.15;3.25;;;;;;;22.56;46.50;102029.94;5091385;28;20036;-66
2022/08/28 00:13:22;;;;;;;10.43;3.40;;;;;;;22.64;46.83;102034.09;5091952;28;20084;-65
2022/08/28 00:15:50;;;;;;;15.60;4.55;;;;;;;22.62;47.12;102028.88;5087335;28;20024;-64
2022/08/28 00:18:16;;;;;;;12.77;3.33;;;;;;;22.70;46.42;102033.00;5071267;28;20516;-65
2022/08/28 00:20:42;;;;;;;14.18;3.28;;;;;;;22.28;47.74;102032.44;5071280;28;20366;-65
2022/08/28 00:23:08;;;;;;;10.43;3.53;;;;;;;22.55;47.02;102032.97;5071241;28;20094;-66
2022/08/28 00:25:35;;;;;;;12.32;3.63;;;;;;;22.46;47.63;102029.16;5071435;28;20063;-66
2022/08/28 00:28:03;;;;;;;9.68;3.80;;;;;;;22.35;47.82;102033.81;5071701;28;20032;-66
2022/08/28 00:30:30;;;;;;;14.35;4.15;;;;;;;22.37;47.91;102019.81;5071071;28;20051;-67
2022/08/28 00:33:02;;;;;;;12.23;4.10;;;;;;;22.06;48.26;102029.13;5075244;28;20107;-66
2022/08/28 00:35:28;;;;;;;15.68;3.80;;;;;;;22.26;47.86;102023.69;5091475;28;20058;-66
2022/08/28 00:37:53;;;;;;;16.58;3.85;;;;;;;22.40;47.70;102025.59;5091307;28;20039;-65
2022/08/28 00:40:21;;;;;;;8.65;3.40;;;;;;;22.43;47.39;102024.22;5091862;28;20062;-66
2022/08/28 00:42:47;;;;;;;9.15;3.83;;;;;;;22.40;47.67;102022.88;5091480;28;20036;-65
2022/08/28 00:45:14;;;;;;;12.27;3.55;;;;;;;22.41;47.49;102027.22;5091181;28;20051;-66
2022/08/28 00:47:39;;;;;;;12.50;3.88;;;;;;;22.44;47.58;102020.38;5091445;28;20438;-66
2022/08/28 00:50:08;;;;;;;12.38;3.85;;;;;;;22.49;47.19;102017.63;5091186;28;20036;-66
2022/08/28 00:52:35;;;;;;;14.48;4.57;;;;;;;22.49;47.09;102018.47;5091278;28;20031;-66
2022/08/28 00:55:09;;;;;;;13.93;3.97;;;;;;;22.37;47.75;102006.13;5091488;28;20380;-67
2022/08/28 00:57:47;;;;;;;18.15;4.00;;;;;;;22.43;47.64;102013.25;5087755;28;20025;-67
2022/08/28 01:00:22;;;;;;;10.38;3.75;;;;;;;22.37;47.99;102008.88;5072794;28;20040;-67
2022/08/28 01:02:48;;;;;;;9.20;3.22;;;;;;;22.34;47.92;102014.91;5080386;28;20105;-66
2022/08/28 01:05:15;;;;;;;10.10;3.72;;;;;;;22.32;48.03;102015.19;5091057;28;20032;-66
2022/08/28 01:07:40;;;;;;;11.15;3.63;;;;;;;22.27;48.06;102022.59;5094552;28;20118;-66
2022/08/28 01:10:12;;;;;;;13.63;3.70;;;;;;;22.25;48.23;102020.09;5095303;28;20028;-66
2022/08/28 01:12:38;;;;;;;9.18;3.72;;;;;;;22.15;48.58;102024.78;5094582;28;20036;-68
2022/08/28 01:15:10;;;;;;;12.30;3.88;;;;;;;22.09;48.73;102014.91;5094459;28;20036;-65
2022/08/28 01:17:39;;;;;;;13.82;3.40;;;;;;;21.93;48.65;102010.53;5075324;28;20130;-65
2022/08/28 01:20:09;;;;;;;9.00;3.38;;;;;;;21.88;49.00;102016.00;5074439;28;20032;-66
2022/08/28 01:22:38;;;;;;;14.10;3.70;;;;;;;21.96;48.66;102018.19;5074087;28;20028;-66
2022/08/28 01:25:07;;;;;;;12.82;3.60;;;;;;;21.80;48.98;102017.31;5074571;28;20039;-66
2022/08/28 01:27:33;;;;;;;17.80;3.35;;;;;;;21.95;49.00;102019.28;5056140;28;20032;-67
2022/08/28 01:29:58;;;;;;;17.75;3.97;;;;;;;21.95;48.71;102016.56;5074161;28;20748;-67
2022/08/28 01:32:36;;;;;;;9.63;3.65;;;;;;;21.79;48.90;102019.25;5083499;28;20036;-66
2022/08/28 01:35:05;;;;;;;10.68;3.70;;;;;;;21.81;48.83;102019.81;5073976;28;20067;-64
2022/08/28 01:37:31;;;;;;;12.05;3.75;;;;;;;21.81;49.04;102019.00;5073716;28;20024;-66
2022/08/28 01:39:56;;;;;;;11.55;3.50;;;;;;;21.83;49.09;102023.13;5074332;28;20025;-65
2022/08/28 01:42:24;;;;;;;16.17;3.75;;;;;;;21.75;49.13;102028.25;5074067;28;20068;-66
2022/08/28 01:44:51;;;;;;;10.65;3.92;;;;;;;21.65;49.16;102025.50;5073852;28;20032;-67
2022/08/28 01:47:17;;;;;;;10.18;3.83;;;;;;;21.40;50.09;102028.16;5073913;28;20116;-65
2022/08/28 01:49:42;;;;;;;10.85;3.53;;;;;;;21.51;49.52;102021.63;5076215;28;23094;-66
2022/08/28 01:52:08;;;;;;;10.73;3.67;;;;;;;21.45;49.55;102028.16;5094156;28;20032;-68
2022/08/28 01:54:34;;;;;;;10.32;3.40;;;;;;;21.49;49.76;102027.38;5093730;28;20032;-66
2022/08/28 01:56:59;;;;;;;11.77;3.55;;;;;;;21.54;49.40;102021.91;5093922;28;20115;-68
2022/08/28 01:59:25;;;;;;;13.13;3.53;;;;;;;21.40;49.77;102019.94;5093308;28;20032;-66
2022/08/28 02:01:50;;;;;;;8.90;3.38;;;;;;;21.34;50.06;102030.06;5093166;28;20032;-66
2022/08/28 02:04:16;;;;;;;14.35;4.20;;;;;;;21.42;49.85;102026.81;5093572;28;20028;-66
2022/08/28 02:06:41;;;;;;;14.70;3.47;;;;;;;21.47;49.56;102034.19;5093139;28;20051;-66
2022/08/28 02:09:07;;;;;;;8.90;3.78;;;;;;;21.42;49.81;102032.28;5092996;28;20040;-66
2022/08/28 02:11:33;;;;;;;9.48;3.30;;;;;;;21.45;49.69;102029.00;5092087;28;20032;-68
2022/08/28 02:13:59;;;;;;;11.55;4.20;;;;;;;21.47;49.71;102042.38;5092876;28;20043;-66
2022/08/28 02:16:25;;;;;;;7.63;3.10;;;;;;;21.50;49.46;102037.19;5083956;28;20051;-67
2022/08/28 02:18:51;;;;;;;6.50;2.72;;;;;;;21.45;49.50;102033.63;5073753;28;20017;-66
2022/08/28 02:21:16;;;;;;;8.52;3.03;;;;;;;21.45;49.54;102028.16;5073432;28;20033;-65
2022/08/28 02:23:43;;;;;;;12.00;3.03;;;;;;;21.28;49.74;102038.50;5072745;28;20186;-65
2022/08/28 02:26:09;;;;;;;12.60;2.90;;;;;;;21.20;49.76;102039.84;5073368;28;20037;-67
2022/08/28 02:28:36;;;;;;;12.50;4.70;;;;;;;21.27;49.87;102040.41;5081910;28;20032;-67
2022/08/28 02:31:02;;;;;;;12.95;3.75;;;;;;;21.23;50.12;102039.28;5093827;28;20596;-64
2022/08/28 02:33:27;;;;;;;10.80;4.20;;;;;;;21.18;50.32;102041.19;5084913;28;20032;-65
2022/08/28 02:35:53;;;;;;;8.70;3.33;;;;;;;21.21;50.16;102037.94;5073039;28;20024;-65
2022/08/28 02:38:18;;;;;;;11.75;4.05;;;;;;;21.21;50.43;102037.94;5072869;28;20040;-66
2022/08/28 02:40:44;;;;;;;6.95;2.63;;;;;;;21.20;50.50;102049.94;5072672;28;20040;-65
2022/08/28 02:43:09;;;;;;;9.07;3.38;;;;;;;21.26;50.11;102046.13;5072753;28;20037;-66
2022/08/28 02:45:35;;;;;;;10.52;3.42;;;;;;;21.23;49.92;102047.50;5072426;28;20033;-66
2022/08/28 02:48:00;;;;;;;9.07;4.00;;;;;;;21.21;50.06;102046.94;5092086;28;20507;-66
2022/08/28 02:50:27;;;;;;;12.07;3.42;;;;;;;21.18;49.95;102046.66;5092780;28;20037;-66
2022/08/28 02:52:52;;;;;;;6.60;3.05;;;;;;;21.24;49.86;102045.59;5092583;28;20028;-67
2022/08/28 02:55:18;;;;;;;12.65;3.60;;;;;;;21.28;50.00;102049.44;5093234;28;20590;-66
2022/08/28 02:57:45;;;;;;;13.80;4.20;;;;;;;21.24;49.97;102051.06;5092648;28;20055;-71
2022/08/28 03:00:16;;;;;;;9.98;3.70;;;;;;;21.15;50.34;102053.47;5092797;28;20379;-67
2022/08/28 03:02:45;;;;;;;8.98;3.35;;;;;;;21.17;50.12;102054.03;5092701;28;20051;-64
2022/08/28 03:05:12;;;;;;;7.20;3.42;;;;;;;21.08;50.21;102050.16;5092507;28;20104;-67
2022/08/28 03:07:37;;;;;;;13.38;4.82;;;;;;;21.11;50.53;102049.63;5092390;28;20126;-66
2022/08/28 03:10:05;;;;;;;12.48;3.88;;;;;;;21.02;50.43;102050.38;5092784;28;20103;-66
2022/08/28 03:12:31;;;;;;;8.48;4.35;;;;;;;20.95;51.05;102050.63;5092390;28;20507;-67
2022/08/28 03:14:56;;;;;;;17.02;3.42;;;;;;;20.93;50.94;102052.78;5092253;28;20032;-67
2022/08/28 03:17:22;;;;;;;8.98;3.45;;;;;;;20.93;50.67;102053.59;5074970;28;20048;-66
2022/08/28 03:19:49;;;;;;;6.93;4.68;;;;;;;21.03;50.45;102049.31;5072010;28;20051;-65
2022/08/28 03:22:16;;;;;;;13.38;4.28;;;;;;;20.91;50.93;102052.22;5072203;28;20052;-67
2022/08/28 03:24:41;;;;;;;9.25;4.07;;;;;;;20.91;50.65;102054.97;5079372;28;20028;-67
2022/08/28 03:27:07;;;;;;;9.75;4.10;;;;;;;20.96;50.54;102052.25;5092051;28;20515;-66
2022/08/28 03:29:34;;;;;;;12.98;4.18;;;;;;;20.95;50.89;102056.88;5092116;28;20036;-65
2022/08/28 03:31:59;;;;;;;10.63;3.95;;;;;;;21.00;50.80;102065.13;5073861;28;20036;-68
2022/08/28 03:34:25;;;;;;;9.13;4.72;;;;;;;20.98;50.59;102066.47;5091941;28;20065;-66
2022/08/28 03:36:50;;;;;;;10.02;4.00;;;;;;;21.02;50.48;102064.06;5092467;28;20024;-68
2022/08/28 03:39:16;;;;;;;18.10;4.20;;;;;;;20.96;50.48;102065.91;5091637;28;20518;-65
2022/08/28 03:41:41;;;;;;;11.10;3.70;;;;;;;20.93;50.62;102061.78;5091840;28;20081;-67
2022/08/28 03:44:07;;;;;;;17.27;3.53;;;;;;;20.89;50.88;102065.34;5091660;28;20032;-66
2022/08/28 03:46:32;;;;;;;7.47;3.90;;;;;;;20.91;50.58;102060.44;5091840;28;20464;-68
2022/08/28 03:49:00;;;;;;;13.30;4.38;;;;;;;20.94;50.69;102070.81;5074095;28;20384;-67
2022/08/28 03:51:28;;;;;;;10.02;4.03;;;;;;;20.94;50.51;102062.63;5091840;28;20042;-68
2022/08/28 03:53:54;;;;;;;12.48;3.95;;;;;;;20.95;50.57;102070.53;5091703;28;20146;-66
2022/08/28 03:56:22;;;;;;;9.80;5.15;;;;;;;20.93;50.47;102072.72;5091732;28;20032;-66
2022/08/28 03:58:50;;;;;;;10.10;4.82;;;;;;;20.80;51.07;102078.66;5073651;28;20039;-67
2022/08/28 04:01:16;;;;;;;9.02;4.13;;;;;;;20.77;50.95;102072.91;5089814;28;20040;-66
2022/08/28 04:03:43;;;;;;;13.10;4.47;;;;;;;20.74;51.33;102071.50;5091420;28;20132;-66
2022/08/28 04:06:09;;;;;;;17.15;4.70;;;;;;;20.72;51.39;102067.38;5091294;28;20036;-66
2022/08/28 04:08:35;;;;;;;15.88;5.57;;;;;;;20.76;51.17;102071.22;5091229;28;20047;-67
2022/08/28 04:11:01;;;;;;;11.05;5.00;;;;;;;20.49;52.04;102076.78;5091223;28;20035;-67
2022/08/28 04:13:27;;;;;;;11.73;4.32;;;;;;;20.57;52.40;102070.84;5091656;28;20032;-67
2022/08/28 04:16:02;;;;;;;7.28;4.50;;;;;;;20.72;51.72;102081.03;5091417;28;20052;-68
2022/08/28 04:18:28;;;;;;;8.95;4.88;;;;;;;20.66;51.75;102074.72;5091697;28;20504;-66
2022/08/28 04:21:00;;;;;;;8.18;5.05;;;;;;;20.69;51.77;102079.69;5091468;28;20612;-67
2022/08/28 04:23:25;;;;;;;7.57;4.47;;;;;;;20.63;51.53;102080.72;5091631;28;20060;-67
2022/08/28 04:25:50;;;;;;;8.10;3.83;;;;;;;20.62;51.47;102083.69;5091475;28;20066;-66
2022/08/28 04:28:16;;;;;;;14.32;5.22;;;;;;;20.59;51.53;102086.97;5092258;28;20016;-67
2022/08/28 04:30:41;;;;;;;9.77;4.35;;;;;;;20.60;51.40;102091.34;5091545;28;20066;-67
2022/08/28 04:33:06;;;;;;;10.75;4.30;;;;;;;20.53;51.59;102098.94;5091511;28;20028;-66
2022/08/28 04:35:32;;;;;;;11.60;5.38;;;;;;;20.61;51.42;102102.00;5093891;28;20123;-66
2022/08/28 04:37:57;;;;;;;10.75;4.30;;;;;;;20.62;51.44;102097.34;5095327;28;20035;-67
2022/08/28 04:40:23;;;;;;;10.80;4.22;;;;;;;20.49;51.48;102103.25;5095665;28;20031;-67
2022/08/28 04:42:50;;;;;;;9.10;4.30;;;;;;;20.60;51.67;102102.28;5089820;28;20542;-67
2022/08/28 04:45:15;;;;;;;10.38;4.93;;;;;;;20.52;51.91;102108.22;5074852;28;20047;-67
2022/08/28 04:47:42;;;;;;;8.25;4.00;;;;;;;20.44;52.16;102106.75;5075134;28;20033;-67
2022/08/28 04:50:09;;;;;;;9.13;4.45;;;;;;;20.57;51.75;102110.97;5074612;28;20511;-67
2022/08/28 04:52:35;;;;;;;11.88;4.82;;;;;;;20.57;51.74;102109.09;5077532;28;20032;-68
2022/08/28 04:55:00;;;;;;;8.63;4.55;;;;;;;20.59;51.60;102111.53;5095407;28;20518;-66
2022/08/28 04:57:26;;;;;;;8.40;4.38;;;;;;;20.58;51.77;102113.44;5076162;28;20040;-67
2022/08/28 04:59:51;;;;;;;8.30;4.10;;;;;;;20.59;51.63;102115.09;5094889;28;20036;-65
2022/08/28 05:02:16;;;;;;;9.13;4.55;;;;;;;20.71;51.44;102120.38;5095053;28;20032;-66
2022/08/28 05:04:42;;;;;;;12.82;4.75;;;;;;;20.62;51.53;102120.03;5095076;28;20051;-66
2022/08/28 05:07:07;;;;;;;8.13;5.40;;;;;;;20.63;51.26;102127.16;5095313;28;20020;-69
2022/08/28 05:09:33;;;;;;;9.65;4.45;;;;;;;20.49;52.05;102119.66;5094569;28;20395;-68
2022/08/28 05:12:03;;;;;;;11.20;4.43;;;;;;;20.51;51.89;102123.78;5094798;28;20498;-67
2022/08/28 05:14:29;;;;;;;12.65;5.70;;;;;;;20.55;52.04;102121.34;5094715;28;20044;-66
2022/08/28 05:16:56;;;;;;;10.38;4.30;;;;;;;20.54;51.59;102122.44;5088998;28;20040;-67
2022/08/28 05:19:23;;;;;;;11.35;4.07;;;;;;;20.64;51.69;102122.50;5074992;28;20511;-66
2022/08/28 05:21:49;;;;;;;9.73;4.70;;;;;;;20.52;51.92;102119.16;5074260;28;20479;-68
2022/08/28 05:24:15;;;;;;;12.43;4.43;;;;;;;20.61;51.87;102118.41;5073662;28;20511;-67
2022/08/28 05:26:40;;;;;;;8.25;4.50;;;;;;;20.62;52.04;102119.19;5073606;28;20045;-65
2022/08/28 05:29:06;;;;;;;9.75;4.80;;;;;;;20.57;52.33;102119.16;5073649;28;20036;-67
2022/08/28 05:31:33;;;;;;;10.25;4.38;;;;;;;20.67;52.22;102120.09;5073592;28;20431;-66
2022/08/28 05:34:00;;;;;;;11.27;4.50;;;;;;;20.72;52.39;102130.22;5074065;28;20043;-68
2022/08/28 05:36:27;;;;;;;12.25;4.78;;;;;;;20.80;52.85;102121.53;5090714;28;20064;-66
2022/08/28 05:38:56;;;;;;;7.35;4.28;;;;;;;20.89;52.38;102118.06;5093626;28;20036;-67
2022/08/28 05:41:24;;;;;;;12.57;4.97;;;;;;;21.11;52.45;102123.44;5093697;28;20040;-66
2022/08/28 05:43:52;;;;;;;12.48;5.57;;;;;;;21.27;52.39;102132.53;5093958;28;20744;-66
2022/08/28 05:46:19;;;;;;;23.50;6.03;;;;;;;21.33;52.12;102126.00;5094655;28;20065;-67
2022/08/28 05:48:45;;;;;;;17.80;4.82;;;;;;;21.38;52.00;102135.09;5094253;28;20105;-65
2022/08/28 05:51:13;;;;;;;12.52;4.35;;;;;;;21.32;52.41;102132.59;5094111;28;20036;-65
2022/08/28 05:53:40;;;;;;;9.60;3.97;;;;;;;21.27;52.84;102127.06;5094220;28;20050;-66
2022/08/28 05:56:11;;;;;;;10.00;4.05;;;;;;;20.84;54.60;102130.84;5094134;28;20038;-68
2022/08/28 05:58:39;;;;;;;13.27;4.30;;;;;;;20.80;54.79;102121.53;5093828;28;20425;-67
2022/08/28 06:01:13;;;;;;;13.90;4.20;;;;;;;20.99;54.17;102125.53;5094436;28;20109;-67
2022/08/28 06:03:40;;;;;;;12.48;4.00;;;;;;;21.09;54.13;102130.25;5093767;28;20044;-66
2022/08/28 06:06:07;;;;;;;11.40;3.92;;;;;;;20.93;54.48;102127.38;5093679;28;20619;-67
2022/08/28 06:08:33;;;;;;;10.50;3.67;;;;;;;21.22;53.57;102138.00;5093520;28;20093;-67
2022/08/28 06:11:01;;;;;;;10.65;4.00;;;;;;;21.34;53.05;102135.88;5093757;28;20035;-66
2022/08/28 06:13:27;;;;;;;11.07;3.47;;;;;;;21.52;52.78;102138.16;5093443;28;20368;-66
2022/08/28 06:15:53;;;;;;;14.63;3.78;;;;;;;21.26;53.06;102128.19;5090342;28;20091;-68
2022/08/28 06:18:18;;;;;;;8.02;2.70;;;;;;;21.39;52.79;102128.50;5093511;28;20079;-66
2022/08/28 06:20:45;;;;;;;10.40;3.20;;;;;;;21.37;52.45;102132.59;5074825;28;20401;-66
2022/08/28 06:23:15;;;;;;;12.82;3.42;;;;;;;21.67;51.44;102135.50;5093350;28;20105;-68
2022/08/28 06:25:47;;;;;;;13.52;3.03;;;;;;;21.43;52.28;102140.56;5093513;28;20075;-65
2022/08/28 06:28:21;;;;;;;11.18;3.35;;;;;;;21.71;51.44;102142.91;5094037;28;20020;-66
2022/08/28 06:30:48;;;;;;;9.85;3.05;;;;;;;21.73;51.48;102146.19;5093285;28;20028;-66
2022/08/28 06:33:15;;;;;;;9.00;2.47;;;;;;;22.07;50.81;102143.06;5093261;28;20055;-66
2022/08/28 06:35:47;;;;;;;11.18;2.58;;;;;;;21.63;51.12;102143.41;5093076;28;20036;-70
2022/08/28 06:38:13;;;;;;;13.40;3.20;;;;;;;21.83;50.87;102146.28;5093302;28;20063;-66
2022/08/28 06:40:41;;;;;;;11.68;2.42;;;;;;;22.37;49.79;102157.63;5092955;28;20403;-67
2022/08/28 06:43:07;;;;;;;13.38;2.70;;;;;;;21.96;49.92;102153.13;5093465;28;20022;-70
2022/08/28 06:45:33;;;;;;;7.00;2.40;;;;;;;22.28;49.53;102156.53;5093051;28;20032;-67
2022/08/28 06:47:58;;;;;;;5.50;1.80;;;;;;;22.20;49.55;102148.00;5093054;28;20052;-69
2022/08/28 06:50:24;;;;;;;10.80;2.60;;;;;;;22.59;48.77;102150.00;5092851;28;20538;-67
2022/08/28 06:52:49;;;;;;;12.20;2.33;;;;;;;22.80;48.30;102152.75;5092829;28;20040;-67
2022/08/28 06:55:15;;;;;;;9.38;2.20;;;;;;;22.78;47.93;102144.78;5093001;28;20477;-66
2022/08/28 06:57:40;;;;;;;12.30;2.72;;;;;;;23.00;47.37;102149.97;5092197;28;20039;-66
2022/08/28 07:00:07;;;;;;;10.73;2.05;;;;;;;22.56;48.69;102142.28;5088545;28;20044;-66
2022/08/28 07:02:32;;;;;;;15.80;2.58;;;;;;;22.86;47.47;102146.19;5081552;28;20032;-66
2022/08/28 07:04:57;;;;;;;9.65;1.90;;;;;;;22.84;47.68;102153.84;5077656;28;20365;-68
2022/08/28 07:07:23;;;;;;;9.38;2.55;;;;;;;22.80;47.76;102155.50;5082575;28;20040;-67
2022/08/28 07:09:49;;;;;;;7.55;2.10;;;;;;;23.25;46.85;102163.69;5083443;28;20036;-66
2022/08/28 07:12:15;;;;;;;11.10;2.33;;;;;;;22.68;47.59;102156.56;5083760;28;20484;-65
2022/08/28 07:14:40;;;;;;;9.77;2.13;;;;;;;22.65;48.20;102157.16;5082311;28;20036;-67
2022/08/28 07:17:06;;;;;;;9.75;2.20;;;;;;;22.79;47.80;102157.41;5082184;28;20054;-67
2022/08/28 07:19:32;;;;;;;13.73;3.10;;;;;;;23.18;46.51;102157.63;5081233;28;20035;-66
2022/08/28 07:21:58;;;;;;;11.07;1.88;;;;;;;22.96;46.97;102159.88;5082604;28;20039;-67
2022/08/28 07:24:23;;;;;;;11.82;2.00;;;;;;;23.05;46.44;102163.69;5082295;28;20032;-67
2022/08/28 07:26:49;;;;;;;7.25;2.30;;;;;;;23.17;46.30;102159.59;5081219;28;20121;-66
2022/08/28 07:29:15;;;;;;;13.10;1.77;;;;;;;23.20;45.89;102156.28;5079882;28;20032;-67
2022/08/28 07:31:44;;;;;;;8.48;2.08;;;;;;;22.84;46.29;102165.63;5082091;28;20032;-66
2022/08/28 07:34:11;;;;;;;9.52;1.67;;;;;;;23.27;46.28;102165.03;5062587;28;20360;-66
2022/08/28 07:36:37;;;;;;;11.50;1.60;;;;;;;23.17;46.51;102170.56;5080299;28;20035;-66
2022/08/28 07:39:04;;;;;;;7.00;1.77;;;;;;;23.77;45.02;102166.84;5063224;28;20040;-68
2022/08/28 07:41:31;;;;;;;6.53;1.70;;;;;;;23.39;45.30;102167.50;5080954;28;20107;-65
2022/08/28 07:46:56;;;;;;;8.48;2.20;;;;;;;23.08;45.92;102177.69;5008440;28;20100;-66
2022/08/28 07:49:23;;;;;;;15.95;1.77;;;;;;;23.60;44.86;102179.25;4991807;28;20097;-65
2022/08/28 07:51:48;;;;;;;5.93;1.75;;;;;;;23.36;45.51;102174.38;5008268;28;20096;-67
2022/08/28 07:54:15;;;;;;;11.70;2.58;;;;;;;24.01;43.93;102180.72;5008062;28;20041;-67
2022/08/28 07:56:41;;;;;;;14.40;2.00;;;;;;;23.77;44.27;102188.78;5008126;28;20034;-65
2022/08/28 07:59:08;;;;;;;8.13;2.45;;;;;;;23.95;43.32;102176.38;5008075;28;20045;-69
2022/08/28 08:01:40;;;;;;;6.28;1.60;;;;;;;23.95;43.50;102177.19;5008239;28;20058;-67
2022/08/28 08:04:08;;;;;;;6.47;1.65;;;;;;;23.15;45.27;102183.72;5006100;28;20040;-69
2022/08/28 08:06:35;;;;;;;8.00;2.97;;;;;;;24.00;42.58;102179.91;5008104;28;20045;-66
2022/08/28 08:09:06;;;;;;;7.40;1.50;;;;;;;24.09;42.79;102182.91;5007885;28;20117;-65
2022/08/28 08:11:32;;;;;;;4.90;1.80;;;;;;;24.48;41.69;102199.44;5011949;28;20050;-67
2022/08/28 08:14:04;;;;;;;8.88;2.13;;;;;;;24.24;42.18;102194.66;5012248;28;20096;-64
2022/08/28 08:16:32;;;;;;;5.97;1.48;;;;;;;24.49;40.96;102190.09;5010607;28;20046;-67
2022/08/28 08:18:58;;;;;;;6.50;1.58;;;;;;;24.20;41.92;102190.00;5013680;28;20060;-67
2022/08/28 08:21:24;;;;;;;11.35;1.65;;;;;;;24.84;40.82;102185.19;5016300;28;20042;-66
2022/08/28 08:23:50;;;;;;;8.73;1.85;;;;;;;25.06;39.81;102190.22;5090002;28;20677;-65
2022/08/28 08:26:18;;;;;;;7.60;2.03;;;;;;;24.52;40.62;102197.75;5056812;28;20054;-66
2022/08/28 08:28:45;;;;;;;5.18;1.38;;;;;;;25.16;38.33;102190.09;5070345;28;20391;-67
2022/08/28 08:31:16;;;;;;;8.30;1.52;;;;;;;24.61;39.47;102191.38;5096492;28;20467;-66
2022/08/28 08:33:45;;;;;;;6.05;1.55;;;;;;;24.57;40.49;102197.75;5095578;28;20112;-65
2022/08/28 08:36:13;;;;;;;7.25;1.08;;;;;;;25.10;39.44;102197.59;5095575;28;20097;-66
2022/08/28 08:38:39;;;;;;;5.75;1.25;;;;;;;25.34;39.05;102191.31;5095286;28;20042;-67
2022/08/28 08:41:13;;;;;;;11.10;1.45;;;;;;;24.99;39.58;102192.47;5094862;28;20036;-66
2022/08/28 08:43:52;;;;;;;5.10;1.48;;;;;;;24.46;40.24;102193.41;5095145;28;20040;-65
2022/08/28 08:46:21;;;;;;;5.88;1.63;;;;;;;24.26;40.72;102205.34;5078176;28;20399;-67
2022/08/28 08:48:46;;;;;;;5.25;1.20;;;;;;;24.54;39.91;102187.31;5095041;28;20125;-69
2022/08/28 08:51:38;;;;;;;6.35;1.48;;;;;;;25.48;38.05;102195.03;5095584;28;20075;-71
2022/08/28 08:54:10;;;;;;;9.68;1.80;;;;;;;24.61;39.34;102193.31;5095590;28;20044;-73
2022/08/28 08:56:37;;;;;;;7.88;1.50;;;;;;;24.80;38.71;102195.13;5095624;28;20040;-73
2022/08/28 08:59:06;;;;;;;5.63;1.67;;;;;;;24.74;38.71;102196.28;5095716;28;20604;-73
2022/08/28 09:01:43;;;;;;;5.57;1.73;;;;;;;25.45;37.89;102201.16;5093042;28;20472;-73
2022/08/28 09:04:50;;;;;;;7.30;1.73;;;;;;;25.28;37.91;102196.88;5075150;28;20037;-73
2022/08/28 09:07:19;;;;;;;7.78;1.25;;;;;;;25.51;37.56;102199.97;5066135;28;20124;-72
2022/08/28 09:09:53;;;;;;;4.20;1.20;;;;;;;25.70;38.06;102198.09;5074357;28;20041;-73
2022/08/28 09:12:22;;;;;;;7.40;1.65;;;;;;;26.29;36.83;102205.91;5074603;28;20385;-73
2022/08/28 09:15:13;;;;;;;9.85;1.73;;;;;;;25.69;36.93;102200.03;5074418;28;20033;-74
2022/08/28 09:17:43;;;;;;;5.72;1.25;;;;;;;26.40;36.08;102196.38;5093329;28;20120;-74
2022/08/28 09:20:13;;;;;;;;;;;;;;;26.77;35.95;102190.88;5089058;28;20123;-73
2022/08/28 09:22:46;;;;;;;7.90;1.65;;;;;;;26.21;36.10;102195.53;5077481;28;19923;-73
2022/08/28 09:25:43;;;;;;;2.72;1.27;;;;;;;26.16;36.50;102188.19;5095044;28;20032;-74
2022/08/28 09:28:15;;;;;;;9.60;1.75;;;;;;;26.12;36.20;102191.81;5093969;28;20097;-73
2022/08/28 09:30:42;;;;;;;8.43;1.73;;;;;;;25.18;37.75;102193.38;5094324;28;20503;-73
2022/08/28 09:33:08;;;;;;;2.33;0.90;;;;;;;25.32;37.49;102194.34;5094505;28;20034;-74
2022/08/28 09:35:38;;;;;;;8.02;1.73;;;;;;;25.51;37.34;102191.72;5093538;28;20036;-72
2022/08/28 09:38:22;;;;;;;4.93;1.25;;;;;;;26.14;36.62;102189.59;5093286;28;20032;-74
2022/08/28 09:43:35;;;;;;;6.00;1.20;;;;;;;25.49;37.53;102188.44;5062481;28;20071;-72
2022/08/28 09:46:21;;;;;;;7.13;1.60;;;;;;;25.25;38.28;102193.88;5078400;28;20032;-68
2022/08/28 09:48:51;;;;;;;4.72;1.42;;;;;;;26.23;37.24;102180.34;5084447;28;20592;-65
2022/08/28 09:51:19;;;;;;;5.00;1.70;;;;;;;25.96;37.33;102191.19;5082117;28;20033;-68
2022/08/28 09:53:50;;;;;;;5.68;1.67;;;;;;;26.09;36.60;102193.22;5081285;28;20032;-66
2022/08/28 09:56:21;;;;;;;6.20;1.48;;;;;;;25.75;35.53;102195.31;5082901;28;20048;-66
2022/08/28 09:58:49;;;;;;;12.82;1.75;;;;;;;25.51;35.35;102202.72;5084419;28;20165;-68
2022/08/28 10:01:33;;;;;;;8.65;1.67;;;;;;;26.02;35.11;102184.47;5087112;28;20370;-66
2022/08/28 10:04:16;;;;;;;8.38;1.65;;;;;;;26.01;34.99;102197.44;5081239;28;20174;-68
2022/08/28 10:06:46;;;;;;;5.78;1.00;;;;;;;25.77;34.72;102190.28;5075770;28;20028;-65
2022/08/28 10:09:18;;;;;;;7.10;1.40;;;;;;;26.35;34.62;102182.66;5080993;28;20037;-67
2022/08/28 10:11:50;;;;;;;5.90;1.67;;;;;;;26.59;34.38;102175.13;5086738;28;20064;-65
2022/08/28 10:14:37;;;;;;;5.70;1.55;;;;;;;27.71;32.80;102173.66;5084583;28;20040;-65
2022/08/28 10:17:21;;;;;;;6.90;1.50;;;;;;;26.82;34.51;102179.75;5083485;28;20056;-66
2022/08/28 10:20:10;;;;;;;5.28;1.40;;;;;;;27.08;33.96;102185.66;5080806;28;20086;-66
2022/08/28 10:22:36;;;;;;;5.13;1.75;;;;;;;27.25;34.30;102183.09;5085463;28;20120;-64
2022/08/28 10:25:11;;;;;;;9.82;1.85;;;;;;;26.79;34.37;102178.41;5085548;28;20408;-65
2022/08/28 10:27:57;;;;;;;10.80;3.42;;;;;;;27.09;33.83;102181.75;5081238;28;20101;-66
2022/08/28 10:30:24;;;;;;;2.25;1.10;;;;;;;27.13;34.04;102174.50;5082169;28;20048;-66
2022/08/28 10:33:32;;;;;;;3.13;1.17;;;;;;;26.65;34.02;102183.00;5082212;28;20029;-65
2022/08/28 10:36:18;;;;;;;4.28;1.20;;;;;;;28.05;31.64;102178.75;5085502;28;20032;-67
2022/08/28 10:38:50;;;;;;;8.35;1.55;;;;;;;27.97;31.80;102176.72;5076927;28;20032;-66
2022/08/28 10:41:24;;;;;;;4.63;1.23;;;;;;;28.05;31.46;102186.25;5064113;28;20037;-66
2022/08/28 10:43:52;;;;;;;2.13;0.98;;;;;;;28.22;30.68;102178.13;5075079;28;20048;-64
2022/08/28 10:46:26;;;;;;;5.95;1.35;;;;;;;27.77;31.03;102177.16;5075696;28;20025;-66
2022/08/28 10:49:20;;;;;;;6.43;1.70;;;;;;;27.83;31.33;102186.16;5085367;28;20028;-65
2022/08/28 10:51:48;;;;;;;7.13;1.55;;;;;;;28.17;31.71;102183.75;5081464;28;20040;-65
2022/08/28 10:54:22;;;;;;;7.75;1.80;;;;;;;28.59;30.76;102173.13;5086657;28;20040;-65
2022/08/28 10:57:17;;;;;;;8.05;1.83;;;;;;;27.83;31.44;102179.47;5058438;28;20107;-65
2022/08/28 10:59:47;;;;;;;4.70;1.42;;;;;;;28.05;29.24;102189.03;4993665;28;20054;-67
2022/08/28 11:02:17;;;;;;;4.05;1.20;;;;;;;27.53;30.35;102176.53;4994275;28;20065;-66
2022/08/28 11:04:46;;;;;;;2.92;1.30;;;;;;;28.00;29.51;102184.41;4997746;28;20414;-65
2022/08/28 11:07:34;;;;;;;6.22;2.20;;;;;;;27.52;30.30;102180.41;4999383;28;20034;-68
2022/08/28 11:10:21;;;;;;;7.63;2.22;;;;;;;28.20;29.60;102175.69;4991805;28;20053;-67
2022/08/28 11:12:50;;;;;;;4.18;1.38;;;;;;;28.10;30.51;102180.59;4996544;28;20042;-66
2022/08/28 11:15:28;;;;;;;10.20;2.03;;;;;;;29.00;29.07;102183.16;5001290;28;20080;-66
2022/08/28 11:18:14;;;;;;;4.18;1.33;;;;;;;28.53;30.02;102181.81;4999179;28;20101;-67
2022/08/28 11:20:53;;;;;;;13.20;1.73;;;;;;;29.23;29.02;102180.06;4998948;28;20045;-65
2022/08/28 11:23:23;;;;;;;;;;;;;;;29.54;27.93;102190.31;4999367;28;20141;-65
2022/08/28 11:25:59;;;;;;;4.03;1.23;;;;;;;27.93;29.79;102181.19;5004308;28;19957;-67
2022/08/28 11:28:24;;;;;;;3.72;0.98;;;;;;;27.65;31.11;102183.19;5002571;28;20036;-66
2022/08/28 11:31:05;;;;;;;3.42;1.38;;;;;;;27.33;30.27;102190.72;5000114;28;20045;-65
2022/08/28 11:33:51;;;;;;;9.13;1.40;;;;;;;26.47;32.25;102185.78;4998971;28;20046;-65
2022/08/28 11:36:19;;;;;;;5.45;2.03;;;;;;;27.67;31.79;102174.59;5026506;28;20075;-68